sensor_id;sensor_type;location;lat;lon;timestamp;P1;durP1;ratioP1;P2;durP2;ratioP2
28266;SDS011;15525;45.568;5.448;2024-02-23T00:00:48;2.20;;;1.38;;
28266;SDS011;15525;45.568;5.448;2024-02-23T00:03:14;2.22;;;1.50;;
28266;SDS011;15525;45.568;5.448;2024-02-23T00:05:39;3.97;;;1.42;;
28266;SDS011;15525;45.568;5.448;2024-02-23T00:08:06;1.77;;;1.02;;
28266;SDS011;15525;45.568;5.448;2024-02-23T00:10:32;3.10;;;1.45;;
28266;SDS011;15525;45.568;5.448;2024-02-23T00:12:57;5.65;;;1.50;;
28266;SDS011;15525;45.568;5.448;2024-02-23T00:15:23;4.32;;;1.33;;
28266;SDS011;15525;45.568;5.448;2024-02-23T00:17:50;2.28;;;1.60;;
28266;SDS011;15525;45.568;5.448;2024-02-23T00:20:15;3.83;;;1.30;;
28266;SDS011;15525;45.568;5.448;2024-02-23T00:22:41;2.63;;;1.00;;
28266;SDS011;15525;45.568;5.448;2024-02-23T00:25:06;3.92;;;1.30;;
28266;SDS011;15525;45.568;5.448;2024-02-23T00:27:32;1.30;;;1.00;;
28266;SDS011;15525;45.568;5.448;2024-02-23T00:29:57;2.92;;;1.50;;
28266;SDS011;15525;45.568;5.448;2024-02-23T00:32:23;2.70;;;1.10;;
28266;SDS011;15525;45.568;5.448;2024-02-23T00:34:48;5.03;;;1.30;;
28266;SDS011;15525;45.568;5.448;2024-02-23T00:37:13;1.55;;;1.02;;
28266;SDS011;15525;45.568;5.448;2024-02-23T00:39:40;4.00;;;1.00;;
28266;SDS011;15525;45.568;5.448;2024-02-23T00:42:05;3.03;;;1.33;;
28266;SDS011;15525;45.568;5.448;2024-02-23T00:44:31;4.60;;;1.67;;
28266;SDS011;15525;45.568;5.448;2024-02-23T00:46:56;4.63;;;1.70;;
28266;SDS011;15525;45.568;5.448;2024-02-23T00:49:26;2.40;;;1.10;;
28266;SDS011;15525;45.568;5.448;2024-02-23T00:51:51;3.20;;;1.20;;
28266;SDS011;15525;45.568;5.448;2024-02-23T00:54:17;2.72;;;1.20;;
28266;SDS011;15525;45.568;5.448;2024-02-23T00:56:42;3.53;;;1.50;;
28266;SDS011;15525;45.568;5.448;2024-02-23T00:59:07;2.55;;;1.50;;
28266;SDS011;15525;45.568;5.448;2024-02-23T01:01:33;2.90;;;1.70;;
28266;SDS011;15525;45.568;5.448;2024-02-23T01:03:58;8.05;;;2.20;;
28266;SDS011;15525;45.568;5.448;2024-02-23T01:06:23;5.03;;;1.90;;
28266;SDS011;15525;45.568;5.448;2024-02-23T01:08:50;3.53;;;1.70;;
28266;SDS011;15525;45.568;5.448;2024-02-23T01:11:15;4.38;;;2.20;;
28266;SDS011;15525;45.568;5.448;2024-02-23T01:13:40;5.50;;;1.80;;
28266;SDS011;15525;45.568;5.448;2024-02-23T01:16:06;2.53;;;1.52;;
28266;SDS011;15525;45.568;5.448;2024-02-23T01:18:33;3.70;;;2.17;;
28266;SDS011;15525;45.568;5.448;2024-02-23T01:20:58;3.33;;;2.33;;
28266;SDS011;15525;45.568;5.448;2024-02-23T01:23:24;5.22;;;1.63;;
28266;SDS011;15525;45.568;5.448;2024-02-23T01:25:49;2.95;;;1.58;;
28266;SDS011;15525;45.568;5.448;2024-02-23T01:28:15;4.30;;;1.50;;
28266;SDS011;15525;45.568;5.448;2024-02-23T01:30:40;5.03;;;1.52;;
28266;SDS011;15525;45.568;5.448;2024-02-23T01:33:06;4.43;;;1.63;;
28266;SDS011;15525;45.568;5.448;2024-02-23T01:35:31;3.60;;;1.63;;
28266;SDS011;15525;45.568;5.448;2024-02-23T01:37:56;3.33;;;1.60;;
28266;SDS011;15525;45.568;5.448;2024-02-23T01:40:22;4.63;;;1.60;;
28266;SDS011;15525;45.568;5.448;2024-02-23T01:42:47;4.07;;;1.80;;
28266;SDS011;15525;45.568;5.448;2024-02-23T01:45:13;6.25;;;1.42;;
28266;SDS011;15525;45.568;5.448;2024-02-23T01:47:38;3.42;;;1.60;;
28266;SDS011;15525;45.568;5.448;2024-02-23T01:50:04;4.10;;;1.70;;
28266;SDS011;15525;45.568;5.448;2024-02-23T01:52:31;4.13;;;1.70;;
28266;SDS011;15525;45.568;5.448;2024-02-23T01:54:56;7.88;;;1.60;;
28266;SDS011;15525;45.568;5.448;2024-02-23T01:57:23;8.40;;;2.00;;
28266;SDS011;15525;45.568;5.448;2024-02-23T01:59:49;5.93;;;2.00;;
28266;SDS011;15525;45.568;5.448;2024-02-23T02:02:15;5.32;;;1.60;;
28266;SDS011;15525;45.568;5.448;2024-02-23T02:04:40;2.35;;;1.42;;
28266;SDS011;15525;45.568;5.448;2024-02-23T02:07:06;6.03;;;1.63;;
28266;SDS011;15525;45.568;5.448;2024-02-23T02:09:31;5.78;;;1.88;;
28266;SDS011;15525;45.568;5.448;2024-02-23T02:11:57;9.57;;;2.20;;
28266;SDS011;15525;45.568;5.448;2024-02-23T02:14:23;4.10;;;1.60;;
28266;SDS011;15525;45.568;5.448;2024-02-23T02:16:48;4.20;;;1.50;;
28266;SDS011;15525;45.568;5.448;2024-02-23T02:19:13;6.22;;;1.58;;
28266;SDS011;15525;45.568;5.448;2024-02-23T02:21:39;4.97;;;1.38;;
28266;SDS011;15525;45.568;5.448;2024-02-23T02:24:06;6.07;;;1.83;;
28266;SDS011;15525;45.568;5.448;2024-02-23T02:26:32;5.97;;;1.70;;
28266;SDS011;15525;45.568;5.448;2024-02-23T02:28:57;4.05;;;1.42;;
28266;SDS011;15525;45.568;5.448;2024-02-23T02:31:23;3.33;;;1.55;;
28266;SDS011;15525;45.568;5.448;2024-02-23T02:33:48;7.82;;;1.58;;
28266;SDS011;15525;45.568;5.448;2024-02-23T02:36:14;6.00;;;1.58;;
28266;SDS011;15525;45.568;5.448;2024-02-23T02:38:39;4.32;;;1.60;;
28266;SDS011;15525;45.568;5.448;2024-02-23T02:41:05;4.68;;;1.60;;
28266;SDS011;15525;45.568;5.448;2024-02-23T02:43:31;5.90;;;1.85;;
28266;SDS011;15525;45.568;5.448;2024-02-23T02:45:57;5.28;;;1.73;;
28266;SDS011;15525;45.568;5.448;2024-02-23T02:48:22;3.47;;;1.48;;
28266;SDS011;15525;45.568;5.448;2024-02-23T02:50:48;3.92;;;1.70;;
28266;SDS011;15525;45.568;5.448;2024-02-23T02:53:14;3.63;;;2.03;;
28266;SDS011;15525;45.568;5.448;2024-02-23T02:55:41;3.53;;;1.55;;
28266;SDS011;15525;45.568;5.448;2024-02-23T02:58:07;4.03;;;1.65;;
28266;SDS011;15525;45.568;5.448;2024-02-23T03:00:33;4.72;;;1.67;;
28266;SDS011;15525;45.568;5.448;2024-02-23T03:02:58;3.95;;;1.75;;
28266;SDS011;15525;45.568;5.448;2024-02-23T03:05:24;4.32;;;2.03;;
28266;SDS011;15525;45.568;5.448;2024-02-23T03:07:49;4.07;;;1.80;;
28266;SDS011;15525;45.568;5.448;2024-02-23T03:10:14;5.20;;;1.63;;
28266;SDS011;15525;45.568;5.448;2024-02-23T03:12:40;7.38;;;1.95;;
28266;SDS011;15525;45.568;5.448;2024-02-23T03:15:06;3.38;;;1.70;;
28266;SDS011;15525;45.568;5.448;2024-02-23T03:17:32;6.15;;;1.88;;
28266;SDS011;15525;45.568;5.448;2024-02-23T03:19:58;5.45;;;2.00;;
28266;SDS011;15525;45.568;5.448;2024-02-23T03:22:23;3.78;;;2.00;;
28266;SDS011;15525;45.568;5.448;2024-02-23T03:24:49;4.00;;;2.10;;
28266;SDS011;15525;45.568;5.448;2024-02-23T03:27:14;5.72;;;1.90;;
28266;SDS011;15525;45.568;5.448;2024-02-23T03:29:39;5.45;;;2.10;;
28266;SDS011;15525;45.568;5.448;2024-02-23T03:32:05;6.25;;;2.10;;
28266;SDS011;15525;45.568;5.448;2024-02-23T03:34:31;7.72;;;2.28;;
28266;SDS011;15525;45.568;5.448;2024-02-23T03:36:56;7.90;;;2.28;;
28266;SDS011;15525;45.568;5.448;2024-02-23T03:39:23;5.88;;;2.25;;
28266;SDS011;15525;45.568;5.448;2024-02-23T03:41:48;5.70;;;2.28;;
28266;SDS011;15525;45.568;5.448;2024-02-23T03:44:14;6.82;;;2.00;;
28266;SDS011;15525;45.568;5.448;2024-02-23T03:46:39;5.03;;;1.95;;
28266;SDS011;15525;45.568;5.448;2024-02-23T03:49:05;7.03;;;1.60;;
28266;SDS011;15525;45.568;5.448;2024-02-23T03:51:30;6.32;;;1.75;;
28266;SDS011;15525;45.568;5.448;2024-02-23T03:53:57;7.78;;;1.90;;
28266;SDS011;15525;45.568;5.448;2024-02-23T03:56:23;4.70;;;2.00;;
28266;SDS011;15525;45.568;5.448;2024-02-23T03:58:48;5.80;;;1.92;;
28266;SDS011;15525;45.568;5.448;2024-02-23T04:01:14;4.30;;;1.60;;
28266;SDS011;15525;45.568;5.448;2024-02-23T04:03:39;3.63;;;1.95;;
28266;SDS011;15525;45.568;5.448;2024-02-23T04:06:05;4.18;;;1.85;;
28266;SDS011;15525;45.568;5.448;2024-02-23T04:08:31;5.30;;;2.00;;
28266;SDS011;15525;45.568;5.448;2024-02-23T04:10:57;6.95;;;2.50;;
28266;SDS011;15525;45.568;5.448;2024-02-23T04:13:22;7.63;;;3.67;;
28266;SDS011;15525;45.568;5.448;2024-02-23T04:15:48;6.63;;;3.65;;
28266;SDS011;15525;45.568;5.448;2024-02-23T04:18:13;9.35;;;3.90;;
28266;SDS011;15525;45.568;5.448;2024-02-23T04:20:39;7.03;;;3.13;;
28266;SDS011;15525;45.568;5.448;2024-02-23T04:23:04;7.43;;;2.97;;
28266;SDS011;15525;45.568;5.448;2024-02-23T04:25:29;7.90;;;2.92;;
28266;SDS011;15525;45.568;5.448;2024-02-23T04:27:55;5.72;;;2.92;;
28266;SDS011;15525;45.568;5.448;2024-02-23T04:30:20;6.55;;;2.70;;
28266;SDS011;15525;45.568;5.448;2024-02-23T04:32:45;5.93;;;2.58;;
28266;SDS011;15525;45.568;5.448;2024-02-23T04:35:11;9.35;;;2.80;;
28266;SDS011;15525;45.568;5.448;2024-02-23T04:37:36;6.65;;;2.72;;
28266;SDS011;15525;45.568;5.448;2024-02-23T04:40:02;8.05;;;2.67;;
28266;SDS011;15525;45.568;5.448;2024-02-23T04:42:29;8.65;;;2.53;;
28266;SDS011;15525;45.568;5.448;2024-02-23T04:44:54;8.05;;;2.53;;
28266;SDS011;15525;45.568;5.448;2024-02-23T04:47:20;5.45;;;2.15;;
28266;SDS011;15525;45.568;5.448;2024-02-23T04:49:45;5.38;;;1.90;;
28266;SDS011;15525;45.568;5.448;2024-02-23T04:52:11;4.40;;;2.25;;
28266;SDS011;15525;45.568;5.448;2024-02-23T04:54:36;4.75;;;2.33;;
28266;SDS011;15525;45.568;5.448;2024-02-23T04:57:02;6.50;;;2.67;;
28266;SDS011;15525;45.568;5.448;2024-02-23T04:59:27;6.95;;;4.35;;
28266;SDS011;15525;45.568;5.448;2024-02-23T05:01:53;6.72;;;3.63;;
28266;SDS011;15525;45.568;5.448;2024-02-23T05:04:18;7.93;;;2.70;;
28266;SDS011;15525;45.568;5.448;2024-02-23T05:06:44;4.03;;;2.13;;
28266;SDS011;15525;45.568;5.448;2024-02-23T05:09:09;3.35;;;2.20;;
28266;SDS011;15525;45.568;5.448;2024-02-23T05:11:35;5.85;;;2.33;;
28266;SDS011;15525;45.568;5.448;2024-02-23T05:14:00;6.63;;;2.22;;
28266;SDS011;15525;45.568;5.448;2024-02-23T05:16:25;6.07;;;2.28;;
28266;SDS011;15525;45.568;5.448;2024-02-23T05:18:51;11.23;;;3.13;;
28266;SDS011;15525;45.568;5.448;2024-02-23T05:21:16;6.60;;;2.50;;
28266;SDS011;15525;45.568;5.448;2024-02-23T05:23:42;7.20;;;2.70;;
28266;SDS011;15525;45.568;5.448;2024-02-23T05:26:07;4.70;;;2.80;;
28266;SDS011;15525;45.568;5.448;2024-02-23T05:28:33;7.68;;;2.63;;
28266;SDS011;15525;45.568;5.448;2024-02-23T05:30:58;4.88;;;2.60;;
28266;SDS011;15525;45.568;5.448;2024-02-23T05:33:24;7.53;;;2.50;;
28266;SDS011;15525;45.568;5.448;2024-02-23T05:35:50;4.50;;;2.17;;
28266;SDS011;15525;45.568;5.448;2024-02-23T05:38:15;7.82;;;2.28;;
28266;SDS011;15525;45.568;5.448;2024-02-23T05:40:41;4.15;;;2.10;;
28266;SDS011;15525;45.568;5.448;2024-02-23T05:43:07;6.25;;;2.78;;
28266;SDS011;15525;45.568;5.448;2024-02-23T05:45:32;8.57;;;3.10;;
28266;SDS011;15525;45.568;5.448;2024-02-23T05:47:58;5.82;;;3.28;;
28266;SDS011;15525;45.568;5.448;2024-02-23T05:50:23;7.82;;;3.22;;
28266;SDS011;15525;45.568;5.448;2024-02-23T05:52:49;6.43;;;3.58;;
28266;SDS011;15525;45.568;5.448;2024-02-23T05:55:14;7.80;;;3.50;;
28266;SDS011;15525;45.568;5.448;2024-02-23T05:57:40;8.10;;;3.83;;
28266;SDS011;15525;45.568;5.448;2024-02-23T06:00:05;6.97;;;3.60;;
28266;SDS011;15525;45.568;5.448;2024-02-23T06:02:32;9.15;;;3.95;;
28266;SDS011;15525;45.568;5.448;2024-02-23T06:04:58;7.88;;;4.10;;
28266;SDS011;15525;45.568;5.448;2024-02-23T06:07:23;5.47;;;3.63;;
28266;SDS011;15525;45.568;5.448;2024-02-23T06:09:54;7.80;;;4.20;;
28266;SDS011;15525;45.568;5.448;2024-02-23T06:12:21;6.32;;;4.15;;
28266;SDS011;15525;45.568;5.448;2024-02-23T06:14:46;7.05;;;4.07;;
28266;SDS011;15525;45.568;5.448;2024-02-23T06:17:12;7.65;;;4.45;;
28266;SDS011;15525;45.568;5.448;2024-02-23T06:19:37;6.72;;;4.20;;
28266;SDS011;15525;45.568;5.448;2024-02-23T06:22:02;10.00;;;3.92;;
28266;SDS011;15525;45.568;5.448;2024-02-23T06:24:28;6.97;;;4.13;;
28266;SDS011;15525;45.568;5.448;2024-02-23T06:26:53;7.75;;;4.47;;
28266;SDS011;15525;45.568;5.448;2024-02-23T06:29:18;8.32;;;4.55;;
28266;SDS011;15525;45.568;5.448;2024-02-23T06:31:44;11.60;;;5.72;;
28266;SDS011;15525;45.568;5.448;2024-02-23T06:34:14;8.27;;;5.30;;
28266;SDS011;15525;45.568;5.448;2024-02-23T06:36:39;9.55;;;4.72;;
28266;SDS011;15525;45.568;5.448;2024-02-23T06:39:05;9.82;;;4.63;;
28266;SDS011;15525;45.568;5.448;2024-02-23T06:41:30;13.07;;;5.55;;
28266;SDS011;15525;45.568;5.448;2024-02-23T06:43:56;10.60;;;5.13;;
28266;SDS011;15525;45.568;5.448;2024-02-23T06:46:21;10.68;;;6.05;;
28266;SDS011;15525;45.568;5.448;2024-02-23T06:48:47;8.98;;;5.78;;
28266;SDS011;15525;45.568;5.448;2024-02-23T06:51:13;13.73;;;5.25;;
28266;SDS011;15525;45.568;5.448;2024-02-23T06:53:39;11.35;;;5.72;;
28266;SDS011;15525;45.568;5.448;2024-02-23T06:56:04;15.07;;;6.65;;
28266;SDS011;15525;45.568;5.448;2024-02-23T06:58:30;13.80;;;7.15;;
28266;SDS011;15525;45.568;5.448;2024-02-23T07:00:55;12.80;;;6.50;;
28266;SDS011;15525;45.568;5.448;2024-02-23T07:03:21;21.17;;;7.60;;
28266;SDS011;15525;45.568;5.448;2024-02-23T07:05:46;22.15;;;8.95;;
28266;SDS011;15525;45.568;5.448;2024-02-23T07:08:13;20.77;;;9.20;;
28266;SDS011;15525;45.568;5.448;2024-02-23T07:10:38;16.67;;;7.78;;
28266;SDS011;15525;45.568;5.448;2024-02-23T07:13:05;22.17;;;8.77;;
28266;SDS011;15525;45.568;5.448;2024-02-23T07:15:31;17.67;;;7.78;;
28266;SDS011;15525;45.568;5.448;2024-02-23T07:17:57;20.45;;;7.55;;
28266;SDS011;15525;45.568;5.448;2024-02-23T07:20:23;14.30;;;7.57;;
28266;SDS011;15525;45.568;5.448;2024-02-23T07:22:48;13.98;;;7.13;;
28266;SDS011;15525;45.568;5.448;2024-02-23T07:25:17;12.93;;;6.90;;
28266;SDS011;15525;45.568;5.448;2024-02-23T07:27:43;15.45;;;6.53;;
28266;SDS011;15525;45.568;5.448;2024-02-23T07:30:10;13.73;;;7.38;;
28266;SDS011;15525;45.568;5.448;2024-02-23T07:32:36;16.67;;;8.02;;
28266;SDS011;15525;45.568;5.448;2024-02-23T07:35:02;16.13;;;8.38;;
28266;SDS011;15525;45.568;5.448;2024-02-23T07:37:28;15.15;;;7.50;;
28266;SDS011;15525;45.568;5.448;2024-02-23T07:39:54;12.57;;;7.10;;
28266;SDS011;15525;45.568;5.448;2024-02-23T07:42:19;16.75;;;7.88;;
28266;SDS011;15525;45.568;5.448;2024-02-23T07:44:45;16.55;;;7.78;;
28266;SDS011;15525;45.568;5.448;2024-02-23T07:47:13;15.98;;;8.27;;
28266;SDS011;15525;45.568;5.448;2024-02-23T07:49:38;16.35;;;9.20;;
28266;SDS011;15525;45.568;5.448;2024-02-23T07:52:06;14.27;;;8.05;;
28266;SDS011;15525;45.568;5.448;2024-02-23T07:54:32;16.25;;;7.95;;
28266;SDS011;15525;45.568;5.448;2024-02-23T07:56:58;14.55;;;8.18;;
28266;SDS011;15525;45.568;5.448;2024-02-23T07:59:23;16.98;;;6.97;;
28266;SDS011;15525;45.568;5.448;2024-02-23T08:01:49;13.55;;;6.43;;
28266;SDS011;15525;45.568;5.448;2024-02-23T08:04:14;12.95;;;7.13;;
28266;SDS011;15525;45.568;5.448;2024-02-23T08:06:41;14.35;;;8.40;;
28266;SDS011;15525;45.568;5.448;2024-02-23T08:09:07;18.08;;;8.68;;
28266;SDS011;15525;45.568;5.448;2024-02-23T08:11:33;15.13;;;8.13;;
28266;SDS011;15525;45.568;5.448;2024-02-23T08:13:58;14.35;;;7.03;;
28266;SDS011;15525;45.568;5.448;2024-02-23T08:16:24;12.18;;;6.00;;
28266;SDS011;15525;45.568;5.448;2024-02-23T08:18:49;15.68;;;7.00;;
28266;SDS011;15525;45.568;5.448;2024-02-23T08:21:15;16.95;;;7.75;;
28266;SDS011;15525;45.568;5.448;2024-02-23T08:23:40;12.98;;;7.10;;
28266;SDS011;15525;45.568;5.448;2024-02-23T08:26:06;13.48;;;6.72;;
28266;SDS011;15525;45.568;5.448;2024-02-23T08:28:31;13.35;;;6.65;;
28266;SDS011;15525;45.568;5.448;2024-02-23T08:30:57;13.80;;;7.25;;
28266;SDS011;15525;45.568;5.448;2024-02-23T08:33:22;12.38;;;6.32;;
28266;SDS011;15525;45.568;5.448;2024-02-23T08:35:48;13.82;;;6.38;;
28266;SDS011;15525;45.568;5.448;2024-02-23T08:38:13;11.65;;;6.43;;
28266;SDS011;15525;45.568;5.448;2024-02-23T08:40:39;16.88;;;6.28;;
28266;SDS011;15525;45.568;5.448;2024-02-23T08:43:04;11.93;;;5.75;;
28266;SDS011;15525;45.568;5.448;2024-02-23T08:45:30;12.07;;;5.88;;
28266;SDS011;15525;45.568;5.448;2024-02-23T08:47:56;12.65;;;5.25;;
28266;SDS011;15525;45.568;5.448;2024-02-23T08:50:21;11.73;;;4.38;;
28266;SDS011;15525;45.568;5.448;2024-02-23T08:52:46;11.80;;;5.93;;
28266;SDS011;15525;45.568;5.448;2024-02-23T08:55:12;11.27;;;4.82;;
28266;SDS011;15525;45.568;5.448;2024-02-23T08:57:37;9.95;;;4.40;;
28266;SDS011;15525;45.568;5.448;2024-02-23T09:00:03;10.60;;;4.72;;
28266;SDS011;15525;45.568;5.448;2024-02-23T09:02:30;12.18;;;3.85;;
28266;SDS011;15525;45.568;5.448;2024-02-23T09:04:57;9.90;;;2.95;;
28266;SDS011;15525;45.568;5.448;2024-02-23T09:07:23;7.13;;;2.50;;
28266;SDS011;15525;45.568;5.448;2024-02-23T09:09:48;5.45;;;2.72;;
28266;SDS011;15525;45.568;5.448;2024-02-23T09:12:15;6.72;;;2.45;;
28266;SDS011;15525;45.568;5.448;2024-02-23T09:14:41;4.60;;;1.40;;
28266;SDS011;15525;45.568;5.448;2024-02-23T09:17:08;3.88;;;1.35;;
28266;SDS011;15525;45.568;5.448;2024-02-23T09:19:35;5.30;;;1.20;;
28266;SDS011;15525;45.568;5.448;2024-02-23T09:22:01;6.72;;;1.30;;
28266;SDS011;15525;45.568;5.448;2024-02-23T09:24:27;3.35;;;1.20;;
28266;SDS011;15525;45.568;5.448;2024-02-23T09:26:52;2.80;;;1.23;;
28266;SDS011;15525;45.568;5.448;2024-02-23T09:29:18;2.90;;;1.20;;
28266;SDS011;15525;45.568;5.448;2024-02-23T09:31:43;5.55;;;1.50;;
28266;SDS011;15525;45.568;5.448;2024-02-23T09:34:09;3.13;;;1.50;;
28266;SDS011;15525;45.568;5.448;2024-02-23T09:36:34;3.95;;;1.30;;
28266;SDS011;15525;45.568;5.448;2024-02-23T09:39:00;2.47;;;1.15;;
28266;SDS011;15525;45.568;5.448;2024-02-23T09:41:27;4.57;;;1.00;;
28266;SDS011;15525;45.568;5.448;2024-02-23T09:43:52;4.47;;;1.58;;
28266;SDS011;15525;45.568;5.448;2024-02-23T09:46:23;2.42;;;1.20;;
28266;SDS011;15525;45.568;5.448;2024-02-23T09:48:50;2.50;;;1.20;;
28266;SDS011;15525;45.568;5.448;2024-02-23T09:51:16;4.13;;;1.15;;
28266;SDS011;15525;45.568;5.448;2024-02-23T09:53:42;3.03;;;1.00;;
28266;SDS011;15525;45.568;5.448;2024-02-23T09:56:08;2.67;;;1.13;;
28266;SDS011;15525;45.568;5.448;2024-02-23T09:58:34;4.65;;;1.10;;
28266;SDS011;15525;45.568;5.448;2024-02-23T10:01:04;1.80;;;0.95;;
28266;SDS011;15525;45.568;5.448;2024-02-23T10:03:30;3.97;;;1.25;;
28266;SDS011;15525;45.568;5.448;2024-02-23T10:05:58;4.63;;;1.33;;
28266;SDS011;15525;45.568;5.448;2024-02-23T10:08:26;7.43;;;1.30;;
28266;SDS011;15525;45.568;5.448;2024-02-23T10:10:52;2.05;;;1.30;;
28266;SDS011;15525;45.568;5.448;2024-02-23T10:13:18;3.92;;;1.10;;
28266;SDS011;15525;45.568;5.448;2024-02-23T10:15:46;5.88;;;1.42;;
28266;SDS011;15525;45.568;5.448;2024-02-23T10:18:12;2.78;;;1.00;;
28266;SDS011;15525;45.568;5.448;2024-02-23T10:20:37;3.58;;;1.00;;
28266;SDS011;15525;45.568;5.448;2024-02-23T10:23:04;2.33;;;1.17;;
28266;SDS011;15525;45.568;5.448;2024-02-23T10:25:29;2.00;;;1.30;;
28266;SDS011;15525;45.568;5.448;2024-02-23T10:27:55;2.80;;;1.08;;
28266;SDS011;15525;45.568;5.448;2024-02-23T10:30:20;1.63;;;1.00;;
28266;SDS011;15525;45.568;5.448;2024-02-23T10:32:46;2.30;;;1.10;;
28266;SDS011;15525;45.568;5.448;2024-02-23T10:35:14;3.63;;;1.10;;
28266;SDS011;15525;45.568;5.448;2024-02-23T10:37:44;2.70;;;1.02;;
28266;SDS011;15525;45.568;5.448;2024-02-23T10:40:15;5.10;;;1.20;;
28266;SDS011;15525;45.568;5.448;2024-02-23T10:42:43;3.83;;;1.20;;
28266;SDS011;15525;45.568;5.448;2024-02-23T10:45:12;3.45;;;1.45;;
28266;SDS011;15525;45.568;5.448;2024-02-23T10:47:40;5.60;;;1.20;;
28266;SDS011;15525;45.568;5.448;2024-02-23T10:50:06;4.57;;;1.00;;
28266;SDS011;15525;45.568;5.448;2024-02-23T10:52:32;3.85;;;1.40;;
28266;SDS011;15525;45.568;5.448;2024-02-23T10:55:02;6.32;;;1.40;;
28266;SDS011;15525;45.568;5.448;2024-02-23T10:57:30;2.33;;;1.08;;
28266;SDS011;15525;45.568;5.448;2024-02-23T10:59:59;3.38;;;1.10;;
28266;SDS011;15525;45.568;5.448;2024-02-23T11:02:26;3.40;;;1.15;;
28266;SDS011;15525;45.568;5.448;2024-02-23T11:04:54;4.65;;;1.45;;
28266;SDS011;15525;45.568;5.448;2024-02-23T11:07:22;3.08;;;1.17;;
28266;SDS011;15525;45.568;5.448;2024-02-23T11:09:54;4.63;;;1.20;;
28266;SDS011;15525;45.568;5.448;2024-02-23T11:12:26;4.45;;;1.08;;
28266;SDS011;15525;45.568;5.448;2024-02-23T11:14:57;2.63;;;1.10;;
28266;SDS011;15525;45.568;5.448;2024-02-23T11:17:26;4.45;;;0.98;;
28266;SDS011;15525;45.568;5.448;2024-02-23T11:19:54;4.38;;;1.30;;
28266;SDS011;15525;45.568;5.448;2024-02-23T11:22:40;2.97;;;1.10;;
28266;SDS011;15525;45.568;5.448;2024-02-23T11:25:06;2.15;;;1.08;;
28266;SDS011;15525;45.568;5.448;2024-02-23T11:27:36;3.45;;;1.08;;
28266;SDS011;15525;45.568;5.448;2024-02-23T11:30:03;3.58;;;1.20;;
28266;SDS011;15525;45.568;5.448;2024-02-23T11:35:12;1.30;;;0.88;;
28266;SDS011;15525;45.568;5.448;2024-02-23T11:40:26;2.03;;;1.00;;
28266;SDS011;15525;45.568;5.448;2024-02-23T11:42:54;4.78;;;1.30;;
28266;SDS011;15525;45.568;5.448;2024-02-23T11:45:19;3.38;;;1.00;;
28266;SDS011;15525;45.568;5.448;2024-02-23T11:47:45;4.38;;;1.08;;
28266;SDS011;15525;45.568;5.448;2024-02-23T11:50:10;2.90;;;1.10;;
28266;SDS011;15525;45.568;5.448;2024-02-23T11:52:39;2.95;;;1.00;;
28266;SDS011;15525;45.568;5.448;2024-02-23T11:55:05;2.03;;;1.00;;
28266;SDS011;15525;45.568;5.448;2024-02-23T11:57:32;2.88;;;0.90;;
28266;SDS011;15525;45.568;5.448;2024-02-23T11:59:58;4.45;;;1.02;;
28266;SDS011;15525;45.568;5.448;2024-02-23T12:02:23;2.50;;;1.17;;
28266;SDS011;15525;45.568;5.448;2024-02-23T12:04:49;3.00;;;0.98;;
28266;SDS011;15525;45.568;5.448;2024-02-23T12:07:15;4.53;;;1.13;;
28266;SDS011;15525;45.568;5.448;2024-02-23T12:09:41;3.25;;;1.40;;
28266;SDS011;15525;45.568;5.448;2024-02-23T12:12:07;4.35;;;1.10;;
28266;SDS011;15525;45.568;5.448;2024-02-23T12:14:34;2.85;;;0.80;;
28266;SDS011;15525;45.568;5.448;2024-02-23T12:17:01;3.22;;;1.00;;
28266;SDS011;15525;45.568;5.448;2024-02-23T12:19:29;2.45;;;1.00;;
28266;SDS011;15525;45.568;5.448;2024-02-23T12:21:59;4.93;;;0.82;;
28266;SDS011;15525;45.568;5.448;2024-02-23T12:24:25;2.95;;;0.90;;
28266;SDS011;15525;45.568;5.448;2024-02-23T12:26:53;1.67;;;0.80;;
28266;SDS011;15525;45.568;5.448;2024-02-23T12:29:22;1.95;;;0.88;;
28266;SDS011;15525;45.568;5.448;2024-02-23T12:31:48;2.92;;;0.95;;
28266;SDS011;15525;45.568;5.448;2024-02-23T12:34:14;2.88;;;0.80;;
28266;SDS011;15525;45.568;5.448;2024-02-23T12:36:39;1.95;;;0.75;;
28266;SDS011;15525;45.568;5.448;2024-02-23T12:39:05;1.90;;;0.80;;
28266;SDS011;15525;45.568;5.448;2024-02-23T12:41:31;1.67;;;0.80;;
28266;SDS011;15525;45.568;5.448;2024-02-23T12:43:57;2.38;;;0.90;;
28266;SDS011;15525;45.568;5.448;2024-02-23T12:46:22;2.38;;;0.95;;
28266;SDS011;15525;45.568;5.448;2024-02-23T12:48:48;1.35;;;0.70;;
28266;SDS011;15525;45.568;5.448;2024-02-23T12:51:14;3.22;;;1.10;;
28266;SDS011;15525;45.568;5.448;2024-02-23T12:53:41;1.90;;;0.80;;
28266;SDS011;15525;45.568;5.448;2024-02-23T12:56:11;2.10;;;0.93;;
28266;SDS011;15525;45.568;5.448;2024-02-23T12:58:39;1.92;;;0.90;;
28266;SDS011;15525;45.568;5.448;2024-02-23T13:01:08;3.65;;;1.00;;
28266;SDS011;15525;45.568;5.448;2024-02-23T13:03:35;3.58;;;1.20;;
28266;SDS011;15525;45.568;5.448;2024-02-23T13:06:01;3.35;;;1.10;;
28266;SDS011;15525;45.568;5.448;2024-02-23T13:08:27;3.88;;;1.40;;
28266;SDS011;15525;45.568;5.448;2024-02-23T13:10:53;5.30;;;1.00;;
28266;SDS011;15525;45.568;5.448;2024-02-23T13:13:20;3.10;;;1.35;;
28266;SDS011;15525;45.568;5.448;2024-02-23T13:15:46;4.78;;;1.10;;
28266;SDS011;15525;45.568;5.448;2024-02-23T13:18:12;3.95;;;1.20;;
28266;SDS011;15525;45.568;5.448;2024-02-23T13:20:38;1.88;;;0.93;;
28266;SDS011;15525;45.568;5.448;2024-02-23T13:23:06;5.35;;;1.33;;
28266;SDS011;15525;45.568;5.448;2024-02-23T13:25:33;3.60;;;1.25;;
28266;SDS011;15525;45.568;5.448;2024-02-23T13:28:01;5.18;;;1.10;;
28266;SDS011;15525;45.568;5.448;2024-02-23T13:30:27;3.67;;;1.35;;
28266;SDS011;15525;45.568;5.448;2024-02-23T13:32:53;3.25;;;1.10;;
28266;SDS011;15525;45.568;5.448;2024-02-23T13:35:18;2.35;;;0.90;;
28266;SDS011;15525;45.568;5.448;2024-02-23T13:37:44;1.63;;;0.93;;
28266;SDS011;15525;45.568;5.448;2024-02-23T13:40:10;2.03;;;1.00;;
28266;SDS011;15525;45.568;5.448;2024-02-23T13:42:36;2.85;;;0.90;;
28266;SDS011;15525;45.568;5.448;2024-02-23T13:45:04;3.03;;;0.98;;
28266;SDS011;15525;45.568;5.448;2024-02-23T13:47:30;2.88;;;0.80;;
28266;SDS011;15525;45.568;5.448;2024-02-23T13:49:56;1.73;;;0.90;;
28266;SDS011;15525;45.568;5.448;2024-02-23T13:52:21;1.88;;;0.75;;
28266;SDS011;15525;45.568;5.448;2024-02-23T13:54:47;2.65;;;0.73;;
28266;SDS011;15525;45.568;5.448;2024-02-23T13:57:12;2.50;;;0.90;;
28266;SDS011;15525;45.568;5.448;2024-02-23T13:59:38;2.45;;;0.93;;
28266;SDS011;15525;45.568;5.448;2024-02-23T14:02:03;2.35;;;1.00;;
28266;SDS011;15525;45.568;5.448;2024-02-23T14:04:28;3.53;;;0.75;;
28266;SDS011;15525;45.568;5.448;2024-02-23T14:06:54;2.53;;;1.00;;
28266;SDS011;15525;45.568;5.448;2024-02-23T14:09:19;1.77;;;0.88;;
28266;SDS011;15525;45.568;5.448;2024-02-23T14:11:45;2.35;;;0.82;;
28266;SDS011;15525;45.568;5.448;2024-02-23T14:14:10;2.70;;;0.93;;
28266;SDS011;15525;45.568;5.448;2024-02-23T14:16:36;2.78;;;0.98;;
28266;SDS011;15525;45.568;5.448;2024-02-23T14:19:02;3.10;;;1.13;;
28266;SDS011;15525;45.568;5.448;2024-02-23T14:21:27;3.35;;;0.80;;
28266;SDS011;15525;45.568;5.448;2024-02-23T14:23:52;2.33;;;0.90;;
28266;SDS011;15525;45.568;5.448;2024-02-23T14:26:18;2.33;;;0.90;;
28266;SDS011;15525;45.568;5.448;2024-02-23T14:28:43;3.92;;;1.20;;
28266;SDS011;15525;45.568;5.448;2024-02-23T14:31:09;3.10;;;1.08;;
28266;SDS011;15525;45.568;5.448;2024-02-23T14:33:34;3.20;;;1.42;;
28266;SDS011;15525;45.568;5.448;2024-02-23T14:35:59;3.10;;;1.40;;
28266;SDS011;15525;45.568;5.448;2024-02-23T14:38:25;1.83;;;1.00;;
28266;SDS011;15525;45.568;5.448;2024-02-23T14:40:50;5.22;;;1.10;;
28266;SDS011;15525;45.568;5.448;2024-02-23T14:43:16;3.88;;;1.20;;